Flight Track Log - Related Links

Times and Time Zones

All times are in EDT time to prevent confusion due to time zone crossing. See the UCA4804 flight status page for this flight to view local times or setup timezone preferences in your user account.

Time Position Orientation Groundspeed Altitude Reporting Facility
EDT Latitude Longitude Course Direction KTS MPH feet Rate Location/Type
Wed 08:57:42 AM 41.4025 -81.8703 310° West 118 136 1,600  Level Cleveland Center
Wed 08:58:19 AM 41.4167 -81.8928 310° West 151 174 2,500 1,388 Climbing Cleveland Center
Wed 08:59:43 AM 41.4650 -81.8578 28° Northeast 190 219 4,400 1,407 Climbing Cleveland Center
Wed 09:00:44 AM 41.5072 -81.8086 41° Northeast 195 224 5,900 1,450 Climbing Cleveland Center
Wed 09:01:43 AM 41.5475 -81.7594 42° Northeast 195 224 7,300 1,462 Climbing Cleveland Center
Wed 09:02:43 AM 41.5897 -81.7103 41° Northeast 195 224 8,800 1,400 Climbing Cleveland Center
Wed 09:03:43 AM 41.6339 -81.6611 40° Northeast 195 224 10,100 1,150 Climbing Cleveland Center
Wed 09:04:43 AM 41.6739 -81.6144 41° Northeast 200 230 11,100 1,091 Climbing Cleveland Center
Wed 09:05:44 AM 41.7203 -81.5567 43° Northeast 214 246 12,300 1,200 Climbing Cleveland Center
Wed 09:06:43 AM 41.7667 -81.4933 46° Northeast 222 255 13,500 1,210 Climbing Cleveland Center
Wed 09:07:43 AM 41.7986 -81.4158 61° Northeast 232 267 14,700 738 Climbing Cleveland Center
Wed 09:08:45 AM 41.8344 -81.3328 60° Northeast 244 281 15,000 793 Climbing Cleveland Center
Wed 09:09:44 AM 41.8767 -81.2414 58° Northeast 260 299 16,300 1,017 Climbing Cleveland Center
Wed 09:10:43 AM 41.9147 -81.1581 58° Northeast 260 299 17,000 350 Climbing Cleveland Center
Wed 09:11:44 AM 41.9547 -81.0633 60° Northeast 269 310 17,000  Level Cleveland Center
Wed 09:12:44 AM 41.9969 -80.9631 60° Northeast 289 333 17,000  Level Cleveland Center
Wed 09:13:43 AM 42.0431 -80.8628 58° Northeast 308 354 17,000  Level Cleveland Center
Wed 09:14:44 AM 42.0869 -80.7594 60° Northeast 314 361 17,000  Level Cleveland Center
Wed 09:15:44 AM 42.1308 -80.6586 60° Northeast 314 361 17,000  Level Cleveland Center
Wed 09:16:44 AM 42.1747 -80.5581 59° Northeast 314 361 17,000  Level Cleveland Center
Wed 09:17:43 AM 42.2122 -80.4542 64° Northeast 314 361 17,000  Level Cleveland Center
Wed 09:18:43 AM 42.2411 -80.3589 68° East 304 350 17,000 -50 Level Cleveland Center
Wed 09:19:43 AM 42.2847 -80.2603 59° Northeast 297 342 16,900 -397 Descending Cleveland Center
Wed 09:20:44 AM 42.3322 -80.1506 60° Northeast 314 361 16,200 -700 Descending Cleveland Center
Wed 09:21:43 AM 42.3797 -80.0436 59° Northeast 319 367 15,500 -706 Descending Cleveland Center
Wed 09:22:43 AM 42.4250 -79.9392 60° Northeast 319 367 14,800 -694 Descending Cleveland Center
Wed 09:23:44 AM 42.4725 -79.8317 59° Northeast 319 367 14,100 -700 Descending Cleveland Center
Wed 09:24:43 AM 42.5175 -79.7297 59° Northeast 319 367 13,400 -756 Descending Cleveland Center
Wed 09:25:43 AM 42.5583 -79.6278 61° Northeast 313 360 12,600 -694 Descending Cleveland Center
Wed 09:26:44 AM 42.6056 -79.5283 57° Northeast 313 360 12,000 -645 Descending Cleveland Center
Wed 09:27:44 AM 42.6483 -79.4286 60° Northeast 313 360 11,300 -655 Descending Cleveland Center
Wed 09:28:43 AM 42.6911 -79.3292 60° Northeast 307 353 10,700 -600 Descending Cleveland Center
Wed 09:29:44 AM 42.7378 -79.2347 56° Northeast 301 346 10,100 -595 Descending Cleveland Center
Wed 09:30:44 AM 42.7931 -79.1375 52° Northeast 296 341 9,500 -756 Descending Cleveland Center
Wed 09:31:43 AM 42.8419 -79.0656 47° Northeast 289 333 8,600 -1,050 Descending Cleveland Center
Wed 09:32:44 AM 42.8950 -78.9764 51° Northeast 273 314 7,400 -1,636 Descending Cleveland Center
Wed 09:33:44 AM 42.9397 -78.8958 53° Northeast 267 307 5,300 -2,370 Descending Cleveland Center
Wed 09:34:43 AM 42.9697 -78.8156 63° Northeast 256 295 2,700 -1,935 Descending Cleveland Center
Wed 09:35:48 AM 42.9500 -78.7500 112° Southeast 118 136 1,300 -1,292 Descending Buffalo TRACON
Wed 09:37:00 AM 42.9404 -78.7306 71° East  Level Estimated
Wed 09:44:00 AM 42.9404 -78.7306 71° East  Level Estimated

Login

Don't have an account? Register now (free) for customized features, flight alerts, and more!